createdAt,value
2023-01-25T00:00:23.393Z,1.27
2023-01-25T00:02:50.099Z,1.35
2023-01-25T00:05:16.930Z,1.53
2023-01-25T00:07:43.605Z,1.86
2023-01-25T00:10:10.741Z,2.18
2023-01-25T00:12:37.369Z,1.20
2023-01-25T00:15:04.528Z,1.26
2023-01-25T00:17:31.302Z,1.78
2023-01-25T00:19:58.114Z,1.36
2023-01-25T00:22:24.615Z,1.76
2023-01-25T00:24:51.093Z,2.26
2023-01-25T00:27:17.579Z,2.06
2023-01-25T00:29:44.126Z,2.27
2023-01-25T00:32:10.889Z,2.26
2023-01-25T00:34:38.944Z,1.90
2023-01-25T00:37:36.527Z,2.28
2023-01-25T00:40:04.023Z,1.40
2023-01-25T00:42:30.636Z,2.21
2023-01-25T00:44:57.200Z,2.02
2023-01-25T00:47:23.846Z,1.80
2023-01-25T00:49:50.430Z,1.61
2023-01-25T00:52:17.047Z,1.05
2023-01-25T00:54:43.694Z,1.64
2023-01-25T00:57:10.589Z,1.95
2023-01-25T00:59:37.232Z,1.29
2023-01-25T01:02:04.136Z,1.64
2023-01-25T01:04:31.255Z,1.28
2023-01-25T01:06:57.962Z,1.71
2023-01-25T01:09:24.797Z,2.02
2023-01-25T01:11:51.681Z,2.09
2023-01-25T01:14:19.129Z,2.28
2023-01-25T01:16:45.971Z,1.73
2023-01-25T01:19:13.086Z,2.10
2023-01-25T01:21:39.743Z,1.89
2023-01-25T01:24:07.019Z,1.94
2023-01-25T01:26:33.753Z,2.01
2023-01-25T01:29:00.346Z,2.06
2023-01-25T01:31:27.244Z,2.26
2023-01-25T01:33:58.311Z,2.26
2023-01-25T01:36:27.501Z,1.61
2023-01-25T01:38:54.368Z,2.21
2023-01-25T01:41:21.301Z,1.94
2023-01-25T01:43:48.009Z,2.25
2023-01-25T01:46:28.954Z,2.23
2023-01-25T01:49:19.840Z,1.62
2023-01-25T01:51:50.583Z,1.73
2023-01-25T01:54:29.283Z,2.28
2023-01-25T01:57:00.551Z,1.64
2023-01-25T01:59:33.972Z,1.13
2023-01-25T02:02:00.743Z,1.66
2023-01-25T02:04:28.495Z,2.17
2023-01-25T02:07:02.714Z,2.18
2023-01-25T02:09:31.704Z,1.72
2023-01-25T02:11:59.971Z,1.88
2023-01-25T02:14:29.176Z,2.07
2023-01-25T02:16:56.303Z,1.53
2023-01-25T02:20:03.511Z,2.16
2023-01-25T02:22:42.271Z,1.88
2023-01-25T02:25:10.655Z,2.09
2023-01-25T02:27:42.584Z,1.68
2023-01-25T02:30:10.179Z,2.09
2023-01-25T02:32:37.238Z,1.98
2023-01-25T02:35:04.800Z,1.93
2023-01-25T02:37:31.781Z,1.88
2023-01-25T02:39:58.382Z,1.69
2023-01-25T02:42:25.039Z,1.15
2023-01-25T02:44:51.893Z,1.00
2023-01-25T02:47:18.630Z,0.89
2023-01-25T02:49:45.380Z,1.90
2023-01-25T02:52:11.967Z,0.66
2023-01-25T02:54:38.500Z,1.02
2023-01-25T02:57:05.215Z,0.32
2023-01-25T02:59:31.849Z,1.95
2023-01-25T03:01:58.550Z,0.62
2023-01-25T03:04:25.280Z,2.00
2023-01-25T03:06:51.934Z,2.05
2023-01-25T03:09:18.534Z,1.46
2023-01-25T03:11:45.156Z,1.97
2023-01-25T03:14:11.814Z,2.05
2023-01-25T03:16:38.401Z,1.54
2023-01-25T03:19:04.903Z,1.76
2023-01-25T03:21:31.580Z,2.03
2023-01-25T03:24:00.270Z,1.69
2023-01-25T03:26:28.587Z,2.10
2023-01-25T03:28:57.384Z,1.54
2023-01-25T03:31:24.793Z,1.65
2023-01-25T03:33:51.566Z,1.34
2023-01-25T03:36:18.348Z,1.52
2023-01-25T03:38:45.003Z,1.77
2023-01-25T03:41:13.777Z,1.86
2023-01-25T03:43:40.376Z,1.80
2023-01-25T03:46:07.056Z,1.83
2023-01-25T03:48:33.863Z,1.73
2023-01-25T03:51:01.640Z,1.67
2023-01-25T03:53:30.081Z,2.00
2023-01-25T03:56:02.214Z,1.92
2023-01-25T03:58:29.778Z,1.79
2023-01-25T04:00:58.762Z,1.83
2023-01-25T04:03:25.829Z,1.84
2023-01-25T04:05:53.748Z,1.85
2023-01-25T04:08:20.664Z,1.84
2023-01-25T04:11:05.940Z,1.35
2023-01-25T04:13:36.552Z,1.42
2023-01-25T04:16:03.781Z,1.75
2023-01-25T04:18:30.515Z,1.62
2023-01-25T04:20:57.685Z,1.61
2023-01-25T04:23:26.017Z,1.64
2023-01-25T04:26:05.253Z,1.70
2023-01-25T04:28:33.024Z,1.70
2023-01-25T04:30:59.774Z,0.60
2023-01-25T04:33:26.816Z,1.36
2023-01-25T04:35:53.472Z,1.68
2023-01-25T04:38:20.089Z,0.66
2023-01-25T04:40:46.710Z,0.61
2023-01-25T04:43:15.217Z,1.64
2023-01-25T04:45:41.758Z,1.47
2023-01-25T04:48:10.233Z,1.25
2023-01-25T04:50:37.773Z,1.30
2023-01-25T04:53:05.738Z,1.65
2023-01-25T04:55:33.858Z,1.66
2023-01-25T04:58:02.038Z,1.57
2023-01-25T05:00:29.495Z,1.63
2023-01-25T05:02:56.157Z,1.56
2023-01-25T05:05:25.478Z,1.72
2023-01-25T05:07:51.985Z,1.34
2023-01-25T05:10:18.631Z,1.58
2023-01-25T05:12:45.292Z,0.94
2023-01-25T05:15:12.483Z,1.69
2023-01-25T05:17:39.256Z,1.21
2023-01-25T05:20:06.423Z,1.03
2023-01-25T05:22:33.080Z,1.57
2023-01-25T05:24:59.830Z,1.47
2023-01-25T05:27:26.432Z,1.50
2023-01-25T05:29:53.066Z,1.09
2023-01-25T05:32:22.171Z,1.60
2023-01-25T05:34:49.233Z,1.75
2023-01-25T05:37:19.303Z,1.79
2023-01-25T05:39:45.835Z,1.31
2023-01-25T05:42:14.457Z,0.93
2023-01-25T05:44:41.207Z,1.18
2023-01-25T05:47:11.907Z,1.76
2023-01-25T05:49:38.203Z,1.82
2023-01-25T05:52:05.052Z,1.84
2023-01-25T05:54:31.553Z,1.36
2023-01-25T05:56:58.078Z,1.51
2023-01-25T05:59:24.649Z,1.71
2023-01-25T06:01:52.521Z,1.08
2023-01-25T06:04:19.009Z,0.97
2023-01-25T06:06:45.515Z,0.89
2023-01-25T06:09:13.078Z,1.85
2023-01-25T06:11:39.832Z,1.84
2023-01-25T06:14:06.311Z,1.51
2023-01-25T06:16:32.850Z,1.62
2023-01-25T06:18:59.303Z,1.36
2023-01-25T06:21:25.815Z,1.59
2023-01-25T06:23:52.363Z,0.99
2023-01-25T06:26:18.986Z,1.72
2023-01-25T06:28:45.435Z,1.37
2023-01-25T06:31:17.147Z,1.69
2023-01-25T06:33:47.094Z,1.65
2023-01-25T06:36:15.719Z,1.56
2023-01-25T06:38:42.720Z,1.17
2023-01-25T06:41:12.103Z,1.11
2023-01-25T06:43:39.360Z,1.45
2023-01-25T06:46:08.918Z,1.45
2023-01-25T06:48:35.894Z,1.44
2023-01-25T06:51:06.116Z,1.59
2023-01-25T06:53:35.980Z,1.17
2023-01-25T06:56:10.000Z,0.57
2023-01-25T06:58:37.964Z,1.50
2023-01-25T07:01:12.987Z,0.92
2023-01-25T07:03:40.808Z,1.66
2023-01-25T07:06:09.439Z,1.65
2023-01-25T07:08:36.922Z,1.71
2023-01-25T07:11:06.569Z,1.69
2023-01-25T07:13:34.271Z,1.02
2023-01-25T07:16:06.302Z,1.47
2023-01-25T07:18:34.060Z,1.03
2023-01-25T07:21:06.211Z,0.58
2023-01-25T07:23:34.516Z,1.62
2023-01-25T07:26:02.115Z,1.57
2023-01-25T07:28:29.073Z,1.00
2023-01-25T07:30:55.600Z,1.24
2023-01-25T07:33:22.207Z,0.56
2023-01-25T07:35:50.935Z,0.80
2023-01-25T07:38:17.826Z,1.42
2023-01-25T07:40:44.377Z,1.40
2023-01-25T07:43:10.900Z,1.28
2023-01-25T07:45:37.566Z,1.37
2023-01-25T07:48:10.555Z,1.61
2023-01-25T07:50:37.037Z,1.18
2023-01-25T07:53:03.530Z,1.65
2023-01-25T07:55:31.016Z,1.60
2023-01-25T07:57:57.554Z,1.34
2023-01-25T08:00:25.125Z,0.72
2023-01-25T08:02:52.471Z,1.38
2023-01-25T08:05:19.577Z,1.27
2023-01-25T08:07:48.315Z,1.73
2023-01-25T08:10:15.445Z,1.57
2023-01-25T08:12:46.297Z,1.43
2023-01-25T08:15:13.930Z,1.54
2023-01-25T08:17:40.560Z,1.10
2023-01-25T08:20:08.127Z,1.60
2023-01-25T08:22:34.676Z,1.37
2023-01-25T08:25:01.703Z,1.25
2023-01-25T08:27:29.134Z,1.69
2023-01-25T08:29:55.670Z,0.96
2023-01-25T08:32:22.237Z,1.22
2023-01-25T08:34:48.799Z,1.68
2023-01-25T08:37:15.352Z,1.42
2023-01-25T08:39:41.846Z,1.01
2023-01-25T08:42:08.396Z,0.89
2023-01-25T08:44:34.975Z,1.25
2023-01-25T08:47:01.579Z,1.56
2023-01-25T08:49:28.218Z,1.28
2023-01-25T08:51:54.817Z,1.30
2023-01-25T08:54:21.412Z,1.37
2023-01-25T08:56:48.018Z,0.80
2023-01-25T08:59:14.493Z,1.30
2023-01-25T09:01:41.231Z,1.54
2023-01-25T09:04:07.839Z,1.25
2023-01-25T09:06:34.451Z,1.55
2023-01-25T09:09:01.407Z,1.58
2023-01-25T09:11:28.027Z,1.11
2023-01-25T09:13:54.552Z,1.44
2023-01-25T09:16:28.852Z,1.28
2023-01-25T09:18:57.931Z,1.84
2023-01-25T09:21:24.697Z,1.72
2023-01-25T09:24:05.465Z,1.85
2023-01-25T09:26:33.584Z,1.86
2023-01-25T09:29:00.227Z,1.79
2023-01-25T09:31:29.732Z,1.73
2023-01-25T09:33:58.019Z,1.80
2023-01-25T09:36:24.618Z,1.59
2023-01-25T09:38:51.304Z,1.42
2023-01-25T09:41:43.626Z,1.58
2023-01-25T09:44:36.950Z,1.68
2023-01-25T09:47:15.420Z,1.86
2023-01-25T09:49:48.075Z,1.86
2023-01-25T09:52:54.154Z,1.89
2023-01-25T09:55:24.419Z,1.14
2023-01-25T09:57:54.158Z,1.51
2023-01-25T10:00:28.205Z,1.69
2023-01-25T10:03:21.239Z,1.40
2023-01-25T10:05:50.798Z,1.79
2023-01-25T10:08:18.058Z,1.85
2023-01-25T10:10:48.308Z,1.75
2023-01-25T10:13:21.632Z,1.84
2023-01-25T10:15:52.456Z,1.37
2023-01-25T10:18:31.220Z,1.71
2023-01-25T10:21:02.004Z,1.48
2023-01-25T10:23:31.239Z,1.71
2023-01-25T10:26:00.660Z,1.61
2023-01-25T10:28:53.805Z,1.48
2023-01-25T10:31:29.573Z,1.89
2023-01-25T10:33:57.090Z,1.91
2023-01-25T10:36:29.747Z,1.75
2023-01-25T10:39:01.164Z,1.72
2023-01-25T10:41:37.912Z,1.37
2023-01-25T10:44:24.476Z,1.52
2023-01-25T10:47:17.099Z,1.66
2023-01-25T10:49:54.667Z,1.60
2023-01-25T10:52:24.675Z,0.42
2023-01-25T10:55:20.457Z,1.60
2023-01-25T10:57:53.299Z,1.62
2023-01-25T11:00:37.669Z,1.61
2023-01-25T11:03:04.843Z,1.83
2023-01-25T11:05:34.448Z,1.78
2023-01-25T11:08:35.306Z,1.85
2023-01-25T11:11:14.380Z,1.77
2023-01-25T11:13:41.977Z,1.69
2023-01-25T11:16:23.685Z,1.66
2023-01-25T11:18:55.457Z,1.55
2023-01-25T11:21:30.325Z,1.51
2023-01-25T11:24:09.380Z,1.57
2023-01-25T11:26:41.010Z,1.60
2023-01-25T11:29:20.967Z,1.65
2023-01-25T11:31:55.274Z,1.73
2023-01-25T11:34:26.527Z,1.57
2023-01-25T11:37:01.162Z,1.87
2023-01-25T11:39:53.504Z,1.51
2023-01-25T11:43:07.243Z,1.97
2023-01-25T11:45:55.393Z,1.95
2023-01-25T11:48:43.614Z,1.88
2023-01-25T11:51:35.868Z,1.63
2023-01-25T11:54:23.944Z,1.73
2023-01-25T11:56:53.567Z,1.81
2023-01-25T11:59:35.157Z,1.78
2023-01-25T12:02:23.801Z,1.77
2023-01-25T12:05:16.268Z,1.48
2023-01-25T12:08:33.507Z,1.65
2023-01-25T12:11:04.722Z,1.29
2023-01-25T12:13:57.441Z,1.19
2023-01-25T12:16:39.680Z,1.04
2023-01-25T12:19:41.659Z,1.62
2023-01-25T12:22:50.288Z,1.64
2023-01-25T12:25:26.195Z,1.02
2023-01-25T12:28:04.694Z,1.59
2023-01-25T12:30:43.450Z,1.60
2023-01-25T12:33:18.308Z,1.68
2023-01-25T12:36:07.901Z,1.68
2023-01-25T12:38:39.767Z,1.28
2023-01-25T12:41:28.408Z,1.68
2023-01-25T12:44:19.630Z,1.63
2023-01-25T12:46:49.200Z,1.58
2023-01-25T12:49:23.776Z,1.33
2023-01-25T12:51:53.047Z,1.55
2023-01-25T12:54:27.846Z,1.51
2023-01-25T12:57:07.325Z,1.23
2023-01-25T12:59:50.025Z,1.52
2023-01-25T13:02:46.262Z,1.25
2023-01-25T13:05:30.886Z,1.56
2023-01-25T13:08:03.145Z,1.47
2023-01-25T13:10:35.758Z,1.50
2023-01-25T13:13:18.057Z,1.27
2023-01-25T13:15:46.221Z,1.60
2023-01-25T13:18:41.974Z,1.37
2023-01-25T13:21:11.554Z,1.50
2023-01-25T13:23:50.694Z,1.53
2023-01-25T13:26:26.616Z,1.59
2023-01-25T13:28:54.586Z,1.26
2023-01-25T13:31:51.876Z,1.63
2023-01-25T13:34:40.349Z,1.69
2023-01-25T13:37:30.913Z,1.73
2023-01-25T13:40:09.665Z,1.74
2023-01-25T13:42:39.411Z,1.67
2023-01-25T13:45:20.938Z,1.68
2023-01-25T13:48:12.967Z,1.66
2023-01-25T13:50:47.872Z,1.03
2023-01-25T13:53:14.328Z,1.53
2023-01-25T13:55:46.609Z,1.20
2023-01-25T13:58:21.961Z,1.58
2023-01-25T14:00:56.028Z,1.41
2023-01-25T14:03:36.759Z,1.54
2023-01-25T14:06:04.370Z,1.55
2023-01-25T14:08:31.892Z,0.99
2023-01-25T14:10:58.773Z,1.09
2023-01-25T14:13:25.543Z,1.31
2023-01-25T14:16:00.436Z,0.86
2023-01-25T14:18:35.261Z,1.21
2023-01-25T14:21:22.121Z,1.29
2023-01-25T14:23:52.341Z,1.19
2023-01-25T14:26:25.357Z,1.13
2023-01-25T14:29:01.179Z,1.08
2023-01-25T14:31:34.699Z,0.88
2023-01-25T14:34:04.344Z,0.93
2023-01-25T14:36:34.354Z,0.56
2023-01-25T14:39:03.188Z,0.55
2023-01-25T14:42:01.005Z,0.78
2023-01-25T14:44:29.678Z,0.95
2023-01-25T14:47:32.935Z,1.13
2023-01-25T14:50:35.122Z,1.15
2023-01-25T14:53:20.891Z,0.95
2023-01-25T14:55:49.183Z,1.17
2023-01-25T14:58:25.987Z,1.18
2023-01-25T15:00:54.369Z,0.28
2023-01-25T15:03:22.526Z,0.86
2023-01-25T15:05:49.363Z,0.97
2023-01-25T15:08:30.176Z,1.02
2023-01-25T15:11:19.482Z,1.19
2023-01-25T15:13:46.350Z,0.42
2023-01-25T15:16:13.697Z,0.99
2023-01-25T15:18:53.297Z,1.10
2023-01-25T15:21:28.513Z,0.57
2023-01-25T15:24:06.734Z,0.72
2023-01-25T15:26:35.184Z,1.05
2023-01-25T15:29:10.232Z,0.92
2023-01-25T15:31:38.345Z,0.24
2023-01-25T15:34:08.312Z,0.78
2023-01-25T15:36:34.985Z,-0.07
2023-01-25T15:39:01.552Z,0.59
2023-01-25T15:41:28.079Z,0.81
2023-01-25T15:43:54.677Z,0.91
2023-01-25T15:46:25.098Z,1.04
2023-01-25T15:48:52.375Z,0.52
2023-01-25T15:51:19.351Z,0.61
2023-01-25T15:53:47.077Z,1.01
2023-01-25T15:56:19.591Z,0.71
2023-01-25T15:58:51.604Z,0.13
2023-01-25T16:01:18.796Z,0.06
2023-01-25T16:03:46.018Z,-0.36
2023-01-25T16:06:28.693Z,0.04
2023-01-25T16:08:55.514Z,-0.28
2023-01-25T16:11:22.724Z,0.56
2023-01-25T16:13:49.288Z,0.55
2023-01-25T16:16:21.099Z,-0.08
2023-01-25T16:18:47.800Z,0.15
2023-01-25T16:21:15.505Z,0.01
2023-01-25T16:23:42.682Z,0.44
2023-01-25T16:26:23.680Z,0.49
2023-01-25T16:28:50.211Z,-0.55
2023-01-25T16:31:31.333Z,0.70
2023-01-25T16:33:58.912Z,0.54
2023-01-25T16:36:25.593Z,0.30
2023-01-25T16:38:52.460Z,-0.03
2023-01-25T16:41:19.081Z,0.62
2023-01-25T16:43:49.616Z,0.26
2023-01-25T16:46:22.165Z,0.51
2023-01-25T16:48:51.124Z,-0.07
2023-01-25T16:51:26.889Z,0.82
2023-01-25T16:53:58.045Z,0.67
2023-01-25T16:56:33.832Z,0.71
2023-01-25T16:59:03.782Z,0.69
2023-01-25T17:01:30.699Z,0.69
2023-01-25T17:03:57.795Z,0.62
2023-01-25T17:06:26.946Z,0.19
2023-01-25T17:08:56.624Z,0.49
2023-01-25T17:11:23.947Z,0.84
2023-01-25T17:13:52.374Z,0.74
2023-01-25T17:16:21.640Z,0.83
2023-01-25T17:18:48.374Z,0.25
2023-01-25T17:21:16.751Z,0.77
2023-01-25T17:23:44.072Z,0.82
2023-01-25T17:26:13.417Z,0.07
2023-01-25T17:28:41.647Z,0.00
2023-01-25T17:31:22.454Z,0.50
2023-01-25T17:33:50.226Z,0.76
2023-01-25T17:36:16.757Z,0.71
2023-01-25T17:38:44.110Z,0.62
2023-01-25T17:41:13.312Z,0.46
2023-01-25T17:43:40.220Z,0.68
2023-01-25T17:46:22.677Z,0.22
2023-01-25T17:48:53.293Z,0.65
2023-01-25T17:51:20.426Z,0.58
2023-01-25T17:53:47.391Z,-0.26
2023-01-25T17:56:14.518Z,0.34
2023-01-25T17:58:42.053Z,0.22
2023-01-25T18:01:17.291Z,0.22
2023-01-25T18:03:45.095Z,0.35
2023-01-25T18:06:14.096Z,0.57
2023-01-25T18:08:42.529Z,0.07
2023-01-25T18:11:11.058Z,0.15
2023-01-25T18:13:49.426Z,0.74
2023-01-25T18:16:17.499Z,0.55
2023-01-25T18:18:45.609Z,0.69
2023-01-25T18:21:15.067Z,0.61
2023-01-25T18:23:43.136Z,0.57
2023-01-25T18:26:21.585Z,0.75
2023-01-25T18:28:49.445Z,0.78
2023-01-25T18:31:17.534Z,0.67
2023-01-25T18:33:45.059Z,0.66
2023-01-25T18:36:16.124Z,0.27
2023-01-25T18:38:42.817Z,0.78
2023-01-25T18:41:09.719Z,0.05
2023-01-25T18:43:36.512Z,0.80
2023-01-25T18:46:03.223Z,0.91
2023-01-25T18:48:32.709Z,0.83
2023-01-25T18:51:11.331Z,0.53
2023-01-25T18:53:40.160Z,0.83
2023-01-25T18:56:18.642Z,0.53
2023-01-25T18:58:45.687Z,0.27
2023-01-25T19:01:12.280Z,0.81
2023-01-25T19:03:38.833Z,0.63
2023-01-25T19:06:05.882Z,0.41
2023-01-25T19:08:35.544Z,0.70
2023-01-25T19:11:08.717Z,0.57
2023-01-25T19:13:39.733Z,0.14
2023-01-25T19:16:13.509Z,0.70
2023-01-25T19:18:46.645Z,0.31
2023-01-25T19:21:19.021Z,0.10
2023-01-25T19:23:45.729Z,0.30
2023-01-25T19:26:15.462Z,0.67
2023-01-25T19:28:42.761Z,0.85
2023-01-25T19:31:23.045Z,0.11
2023-01-25T19:34:00.589Z,0.81
2023-01-25T19:36:29.575Z,0.80
2023-01-25T19:39:00.670Z,0.14
2023-01-25T19:41:29.456Z,0.46
2023-01-25T19:44:00.744Z,0.57
2023-01-25T19:46:31.765Z,-0.51
2023-01-25T19:49:02.137Z,0.70
2023-01-25T19:51:33.926Z,0.61
2023-01-25T19:54:03.586Z,0.83
2023-01-25T19:56:33.167Z,-0.49
2023-01-25T19:59:02.009Z,0.71
2023-01-25T20:01:29.445Z,0.83
2023-01-25T20:03:59.641Z,0.78
2023-01-25T20:06:34.541Z,0.76
2023-01-25T20:09:01.277Z,-0.78
2023-01-25T20:11:35.858Z,0.17
2023-01-25T20:14:05.100Z,0.48
2023-01-25T20:16:37.383Z,0.59
2023-01-25T20:19:04.774Z,-0.29
2023-01-25T20:21:32.379Z,-0.18
2023-01-25T20:24:02.639Z,-0.87
2023-01-25T20:26:34.843Z,0.02
2023-01-25T20:29:01.695Z,0.07
2023-01-25T20:31:31.648Z,0.05
2023-01-25T20:34:03.983Z,-0.07
2023-01-25T20:36:33.335Z,0.52
2023-01-25T20:39:03.012Z,0.57
2023-01-25T20:41:29.867Z,0.52
2023-01-25T20:44:00.911Z,0.54
2023-01-25T20:46:34.437Z,0.65
2023-01-25T20:49:02.164Z,0.66
2023-01-25T20:51:29.597Z,-0.30
2023-01-25T20:53:56.744Z,0.31
2023-01-25T20:56:26.073Z,0.13
2023-01-25T20:58:53.452Z,0.52
2023-01-25T21:01:26.612Z,-0.70
2023-01-25T21:03:54.514Z,-0.05
2023-01-25T21:06:20.987Z,-0.19
2023-01-25T21:08:47.587Z,-0.12
2023-01-25T21:11:14.343Z,-0.03
2023-01-25T21:13:41.144Z,0.25
2023-01-25T21:16:14.724Z,0.46
2023-01-25T21:18:48.661Z,0.04
2023-01-25T21:21:28.023Z,0.67
2023-01-25T21:23:57.007Z,0.51
2023-01-25T21:26:31.865Z,0.70
2023-01-25T21:28:59.642Z,0.39
2023-01-25T21:31:28.357Z,0.06
2023-01-25T21:33:55.643Z,0.06
2023-01-25T21:36:23.456Z,0.81
2023-01-25T21:38:52.270Z,0.61
2023-01-25T21:41:24.845Z,0.46
2023-01-25T21:44:11.428Z,0.64
2023-01-25T21:46:38.873Z,0.68
2023-01-25T21:49:28.471Z,0.69
2023-01-25T21:51:59.149Z,0.67
2023-01-25T21:54:33.922Z,0.63
2023-01-25T21:57:03.123Z,0.34
2023-01-25T21:59:29.814Z,0.20
2023-01-25T22:01:56.532Z,0.18
2023-01-25T22:04:24.867Z,0.48
2023-01-25T22:06:54.882Z,0.46
2023-01-25T22:09:22.704Z,0.39
2023-01-25T22:11:51.071Z,0.09
2023-01-25T22:14:23.264Z,0.03
2023-01-25T22:16:51.305Z,0.17
2023-01-25T22:19:18.261Z,-0.59
2023-01-25T22:21:45.490Z,-0.42
2023-01-25T22:24:13.029Z,-0.38
2023-01-25T22:26:45.581Z,0.19
2023-01-25T22:29:12.766Z,0.21
2023-01-25T22:31:39.925Z,0.08
2023-01-25T22:34:06.988Z,0.11
2023-01-25T22:36:34.063Z,-0.34
2023-01-25T22:39:00.672Z,-0.09
2023-01-25T22:41:29.668Z,-1.24
2023-01-25T22:43:56.460Z,-0.33
2023-01-25T22:46:25.643Z,-0.41
2023-01-25T22:48:52.548Z,-0.64
2023-01-25T22:51:25.050Z,-0.18
2023-01-25T22:53:52.256Z,0.13
2023-01-25T22:56:25.082Z,0.34
2023-01-25T22:58:52.391Z,0.00
2023-01-25T23:01:24.521Z,-0.04
2023-01-25T23:03:51.632Z,-0.09
2023-01-25T23:06:29.544Z,0.00
2023-01-25T23:08:59.962Z,-0.07
2023-01-25T23:11:37.447Z,0.18
2023-01-25T23:14:24.916Z,-0.19
2023-01-25T23:16:51.624Z,0.27
2023-01-25T23:19:18.457Z,0.05
2023-01-25T23:21:44.959Z,-0.36
2023-01-25T23:24:12.678Z,0.37
2023-01-25T23:26:39.548Z,-0.23
2023-01-25T23:29:11.418Z,-0.06
2023-01-25T23:31:38.440Z,-0.60
2023-01-25T23:34:06.957Z,-0.57
2023-01-25T23:36:38.852Z,0.08
2023-01-25T23:39:06.312Z,0.18
2023-01-25T23:41:33.515Z,-0.88
2023-01-25T23:44:00.905Z,-0.48
2023-01-25T23:46:28.585Z,-0.71
2023-01-25T23:48:55.374Z,-0.04
2023-01-25T23:51:22.139Z,-0.51
2023-01-25T23:53:49.100Z,0.15
2023-01-25T23:56:18.638Z,0.40
2023-01-25T23:58:45.994Z,0.34
